Birdeye, Arkansas
Current Conditions -  °F | °C
As of 5:53 PM on Sunday 25 Jan 2015 (Local Time) from KAWM Reporting Station
Overcast Overcast  
Wind Chill: 41°   Ceiling: 8000
Heat Index: 47°   Visibility: 10mi
Dew Point: 39°   Wind: 13mph
Humidity: 74%   Direction: 300°WNW
Pressure: 29.81"   Gusts: 22mph
Location:  35.38°N, 90.69°W
Report Text: KAWM 252353Z AUTO 30011G19KT 10SM FEW041 SCT050 OVC080 08/04 A2981 RMK AO2 SLP095 60025 T00830039 10139 20078 53037
Loading
Personal Weather Stations






























Interactive Weather Map New forecast layout! Learn more

10-Day Weather Forecast

Advertisements
Track Severe Weather on mobile